createdAt,value
2022-10-04T00:01:51.308Z,3.40
2022-10-04T00:04:24.530Z,3.37
2022-10-04T00:06:59.387Z,3.60
2022-10-04T00:09:33.382Z,2.87
2022-10-04T00:12:02.826Z,3.20
2022-10-04T00:14:34.041Z,2.70
2022-10-04T00:17:11.513Z,2.90
2022-10-04T00:19:45.136Z,3.33
2022-10-04T00:22:17.395Z,3.07
2022-10-04T00:25:22.632Z,2.90
2022-10-04T00:28:27.870Z,2.97
2022-10-04T00:31:14.531Z,2.13
2022-10-04T00:33:44.140Z,3.00
2022-10-04T00:36:32.123Z,2.93
2022-10-04T00:39:32.787Z,2.50
2022-10-04T00:42:10.329Z,2.70
2022-10-04T00:44:45.556Z,2.33
2022-10-04T00:47:31.788Z,2.93
2022-10-04T00:50:09.509Z,2.37
2022-10-04T00:52:42.366Z,2.33
2022-10-04T00:55:23.705Z,2.33
2022-10-04T00:57:54.839Z,2.63
2022-10-04T01:00:23.280Z,2.27
2022-10-04T01:02:57.874Z,2.90
2022-10-04T01:05:30.045Z,2.13
2022-10-04T01:08:05.146Z,2.10
2022-10-04T01:10:41.614Z,2.07
2022-10-04T01:13:14.302Z,2.00
2022-10-04T01:15:46.393Z,2.13
2022-10-04T01:18:17.409Z,2.10
2022-10-04T01:20:55.426Z,1.93
2022-10-04T01:23:36.882Z,2.20
2022-10-04T01:26:06.214Z,1.90
2022-10-04T01:28:35.510Z,2.13
2022-10-04T01:31:03.697Z,1.90
2022-10-04T01:33:31.790Z,2.10
2022-10-04T01:35:59.918Z,2.00
2022-10-04T01:38:27.956Z,2.23
2022-10-04T01:41:01.042Z,1.97
2022-10-04T01:43:33.457Z,1.67
2022-10-04T01:46:06.430Z,1.97
2022-10-04T01:48:37.688Z,1.73
2022-10-04T01:51:10.027Z,2.07
2022-10-04T01:53:45.576Z,2.57
2022-10-04T01:56:18.707Z,1.87
2022-10-04T01:58:50.154Z,2.10
2022-10-04T02:01:23.502Z,2.03
2022-10-04T02:03:58.842Z,1.87
2022-10-04T02:06:27.282Z,1.90
2022-10-04T02:08:57.662Z,1.83
2022-10-04T02:11:31.329Z,1.97
2022-10-04T02:14:00.437Z,2.03
2022-10-04T02:16:28.739Z,2.03
2022-10-04T02:18:57.414Z,2.20
2022-10-04T02:21:25.691Z,2.00
2022-10-04T02:23:54.525Z,2.20
2022-10-04T02:26:22.630Z,2.07
2022-10-04T02:28:52.554Z,2.00
2022-10-04T02:31:40.366Z,2.20
2022-10-04T02:34:09.485Z,2.17
2022-10-04T02:36:39.505Z,2.23
2022-10-04T02:39:16.461Z,1.90
2022-10-04T02:41:48.085Z,1.90
2022-10-04T02:44:21.841Z,2.07
2022-10-04T02:46:54.884Z,2.33
2022-10-04T02:49:31.943Z,2.27
2022-10-04T02:52:05.309Z,2.27
2022-10-04T02:54:41.058Z,2.03
2022-10-04T02:57:17.087Z,2.53
2022-10-04T02:59:46.961Z,2.47
2022-10-04T03:02:30.094Z,2.90
2022-10-04T03:05:05.858Z,2.90
2022-10-04T03:07:35.699Z,2.57
2022-10-04T03:10:09.057Z,2.50
2022-10-04T03:12:38.863Z,3.00
2022-10-04T03:15:10.668Z,2.57
2022-10-04T03:17:40.796Z,3.10
2022-10-04T03:20:12.737Z,3.10
2022-10-04T03:22:46.107Z,3.07
2022-10-04T03:25:19.832Z,3.20
2022-10-04T03:27:48.779Z,3.40
2022-10-04T03:30:20.682Z,3.43
2022-10-04T03:32:49.486Z,3.80
2022-10-04T03:35:28.046Z,3.80
2022-10-04T03:37:58.221Z,3.57
2022-10-04T03:40:30.303Z,3.37
2022-10-04T03:43:00.360Z,3.70
2022-10-04T03:45:30.810Z,3.93
2022-10-04T03:48:05.593Z,4.03
2022-10-04T03:50:39.051Z,3.93
2022-10-04T03:53:13.082Z,4.00
2022-10-04T03:55:43.630Z,4.20
2022-10-04T03:58:13.875Z,4.30
2022-10-04T04:00:47.583Z,4.53
2022-10-04T04:03:20.369Z,3.97
2022-10-04T04:05:53.938Z,4.20
2022-10-04T04:08:29.589Z,4.43
2022-10-04T04:10:59.975Z,4.70
2022-10-04T04:13:32.298Z,4.57
2022-10-04T04:16:03.782Z,4.23
2022-10-04T04:18:35.202Z,4.57
2022-10-04T04:21:06.239Z,5.27
2022-10-04T04:23:37.874Z,4.70
2022-10-04T04:26:19.746Z,4.63
2022-10-04T04:28:51.503Z,4.43
2022-10-04T04:31:24.683Z,4.73
2022-10-04T04:34:00.260Z,4.37
2022-10-04T04:36:29.606Z,4.80
2022-10-04T04:39:26.057Z,4.57
2022-10-04T04:41:54.242Z,4.30
2022-10-04T04:44:29.337Z,5.23
2022-10-04T04:47:00.333Z,5.20
2022-10-04T04:49:31.266Z,5.53
2022-10-04T04:52:00.029Z,5.13
2022-10-04T04:54:29.048Z,4.50
2022-10-04T04:56:58.034Z,5.20
2022-10-04T04:59:28.144Z,4.97
2022-10-04T05:01:56.216Z,4.90
2022-10-04T05:04:26.259Z,5.03
2022-10-04T05:07:06.542Z,4.50
2022-10-04T05:09:36.418Z,5.50
2022-10-04T05:12:09.529Z,5.00
2022-10-04T05:14:41.097Z,5.83
2022-10-04T05:17:09.125Z,5.00
2022-10-04T05:19:40.577Z,4.90
2022-10-04T05:22:11.520Z,5.17
2022-10-04T05:24:42.322Z,5.03
2022-10-04T05:27:17.645Z,4.70
2022-10-04T05:29:58.716Z,5.10
2022-10-04T05:32:34.360Z,5.07
2022-10-04T05:35:03.979Z,5.30
2022-10-04T05:37:53.260Z,5.67
2022-10-04T05:40:36.313Z,6.67
2022-10-04T05:43:22.150Z,6.17
2022-10-04T05:46:14.200Z,6.90
2022-10-04T05:48:44.282Z,6.63
2022-10-04T05:51:20.925Z,6.57
2022-10-04T05:53:49.962Z,6.70
2022-10-04T05:56:46.566Z,6.60
2022-10-04T05:59:27.666Z,6.53
2022-10-04T06:02:04.860Z,6.53
2022-10-04T06:04:45.774Z,6.93
2022-10-04T06:07:25.221Z,6.67
2022-10-04T06:10:06.121Z,6.83
2022-10-04T06:12:45.958Z,6.70
2022-10-04T06:15:29.702Z,7.40
2022-10-04T06:18:14.938Z,6.70
2022-10-04T06:21:04.089Z,7.17
2022-10-04T06:23:37.650Z,7.67
2022-10-04T06:26:12.225Z,7.57
2022-10-04T06:28:43.185Z,8.70
2022-10-04T06:31:46.936Z,8.40
2022-10-04T06:34:51.890Z,9.97
2022-10-04T06:37:35.420Z,8.77
2022-10-04T06:40:38.580Z,7.40
2022-10-04T06:43:32.310Z,8.47
2022-10-04T06:46:09.894Z,8.43
2022-10-04T06:48:54.196Z,8.23
2022-10-04T06:51:41.642Z,8.30
2022-10-04T06:54:27.890Z,9.13
2022-10-04T06:57:23.741Z,8.27
2022-10-04T07:00:06.135Z,8.43
2022-10-04T07:02:40.362Z,9.27
2022-10-04T07:05:19.937Z,8.57
2022-10-04T07:08:06.370Z,8.80
2022-10-04T07:10:38.930Z,9.07
2022-10-04T07:13:22.534Z,8.30
2022-10-04T07:16:00.339Z,8.23
2022-10-04T07:18:32.758Z,7.97
2022-10-04T07:21:06.771Z,8.43
2022-10-04T07:23:40.065Z,8.53
2022-10-04T07:26:20.818Z,8.23
2022-10-04T07:29:09.040Z,7.97
2022-10-04T07:31:38.208Z,7.10
2022-10-04T07:34:12.484Z,7.47
2022-10-04T07:36:46.274Z,8.00
2022-10-04T07:39:18.441Z,7.80
2022-10-04T07:41:52.310Z,7.50
2022-10-04T07:44:32.684Z,7.47
2022-10-04T07:47:04.609Z,7.00
2022-10-04T07:49:39.404Z,7.63
2022-10-04T07:52:25.243Z,7.97
2022-10-04T07:55:02.090Z,8.47
2022-10-04T07:57:38.759Z,7.97
2022-10-04T08:00:16.863Z,8.13
2022-10-04T08:02:57.341Z,7.80
2022-10-04T08:05:30.279Z,8.03
2022-10-04T08:08:16.737Z,7.03
2022-10-04T08:10:57.673Z,7.17
2022-10-04T08:13:35.049Z,6.47
2022-10-04T08:16:11.366Z,6.83
2022-10-04T08:18:48.533Z,6.23
2022-10-04T08:21:23.546Z,6.97
2022-10-04T08:24:08.395Z,6.40
2022-10-04T08:26:51.053Z,6.83
2022-10-04T08:29:42.684Z,7.67
2022-10-04T08:32:23.303Z,6.50
2022-10-04T08:35:16.305Z,6.90
2022-10-04T08:37:55.829Z,6.83
2022-10-04T08:41:11.750Z,7.30
2022-10-04T08:44:12.722Z,7.10
2022-10-04T08:47:19.888Z,7.03
2022-10-04T08:50:23.377Z,6.83
2022-10-04T08:53:18.380Z,7.17
2022-10-04T08:56:07.059Z,6.70
2022-10-04T08:59:06.983Z,7.70
2022-10-04T09:01:56.937Z,7.10
2022-10-04T09:04:57.422Z,6.67
2022-10-04T09:07:58.639Z,7.03
2022-10-04T09:11:06.015Z,6.50
2022-10-04T09:13:43.470Z,6.90
2022-10-04T09:16:18.180Z,6.73
2022-10-04T09:19:03.184Z,6.07
2022-10-04T09:21:50.514Z,5.90
2022-10-04T09:25:06.138Z,6.23
2022-10-04T09:27:55.579Z,6.60
2022-10-04T09:30:31.026Z,5.80
2022-10-04T09:33:26.736Z,5.57
2022-10-04T09:36:16.277Z,5.67
2022-10-04T09:39:29.616Z,5.90
2022-10-04T09:42:25.489Z,5.53
2022-10-04T09:45:11.778Z,5.27
2022-10-04T09:47:45.809Z,4.83
2022-10-04T09:50:56.983Z,5.20
2022-10-04T09:53:41.036Z,5.33
2022-10-04T09:56:45.887Z,5.10
2022-10-04T09:59:54.159Z,5.33
2022-10-04T10:03:11.089Z,5.30
2022-10-04T10:06:24.430Z,5.27
2022-10-04T10:09:07.254Z,4.80
2022-10-04T10:12:01.488Z,5.90
2022-10-04T10:15:04.634Z,5.00
2022-10-04T10:17:41.612Z,4.60
2022-10-04T10:20:40.811Z,4.63
2022-10-04T10:23:30.027Z,4.47
2022-10-04T10:26:22.791Z,4.50
2022-10-04T10:29:21.054Z,4.50
2022-10-04T10:32:11.185Z,3.40
2022-10-04T10:35:12.254Z,4.07
2022-10-04T10:37:53.743Z,3.77
2022-10-04T10:40:40.893Z,3.83
2022-10-04T10:43:23.131Z,4.07
2022-10-04T10:46:15.433Z,4.00
2022-10-04T10:49:05.252Z,3.83
2022-10-04T10:52:11.855Z,3.77
2022-10-04T10:55:00.822Z,3.40
2022-10-04T10:57:57.959Z,3.30
2022-10-04T11:00:35.205Z,3.73
2022-10-04T11:03:38.429Z,2.90
2022-10-04T11:06:20.418Z,3.07
2022-10-04T11:09:32.688Z,3.30
2022-10-04T11:12:44.409Z,3.10
2022-10-04T11:15:41.134Z,3.20
2022-10-04T11:18:51.078Z,3.33
2022-10-04T11:21:56.871Z,3.60
2022-10-04T11:25:04.825Z,3.27
2022-10-04T11:27:48.954Z,3.00
2022-10-04T11:30:25.295Z,3.37
2022-10-04T11:33:33.924Z,3.50
2022-10-04T11:36:21.324Z,3.27
2022-10-04T11:39:11.810Z,3.97
2022-10-04T11:41:55.090Z,3.90
2022-10-04T11:45:05.564Z,4.37
2022-10-04T11:47:45.348Z,4.27
2022-10-04T11:50:28.587Z,4.10
2022-10-04T11:53:34.710Z,4.40
2022-10-04T11:56:22.337Z,4.30
2022-10-04T11:59:11.875Z,3.93
2022-10-04T12:02:10.891Z,3.77
2022-10-04T12:05:05.443Z,3.57
2022-10-04T12:07:50.488Z,3.13
2022-10-04T12:10:29.187Z,3.20
2022-10-04T12:13:32.722Z,2.90
2022-10-04T12:16:24.235Z,2.40
2022-10-04T12:19:16.060Z,2.60
2022-10-04T12:21:59.361Z,2.80
2022-10-04T12:24:53.038Z,2.40
2022-10-04T12:27:52.304Z,2.70
2022-10-04T12:30:31.999Z,2.30
2022-10-04T12:33:10.313Z,2.73
2022-10-04T12:36:06.488Z,2.87
2022-10-04T12:39:05.347Z,2.83
2022-10-04T12:41:46.410Z,2.60
2022-10-04T12:44:29.855Z,2.97
2022-10-04T12:47:16.277Z,3.00
2022-10-04T12:49:56.383Z,2.80
2022-10-04T12:52:27.974Z,2.70
2022-10-04T12:55:03.555Z,3.27
2022-10-04T12:57:45.663Z,3.10
2022-10-04T13:00:21.329Z,2.60
2022-10-04T13:03:19.507Z,3.10
2022-10-04T13:06:02.421Z,3.40
2022-10-04T13:08:59.063Z,3.00
2022-10-04T13:11:50.262Z,4.03
2022-10-04T13:14:36.066Z,3.03
2022-10-04T13:17:30.425Z,3.40
2022-10-04T13:20:32.006Z,3.30
2022-10-04T13:23:06.262Z,3.13
2022-10-04T13:26:11.771Z,3.23
2022-10-04T13:28:48.687Z,3.10
2022-10-04T13:31:25.301Z,3.70
2022-10-04T13:34:07.499Z,3.83
2022-10-04T13:36:51.696Z,3.20
2022-10-04T13:39:35.065Z,3.80
2022-10-04T13:42:19.180Z,3.07
2022-10-04T13:45:01.753Z,2.93
2022-10-04T13:47:46.409Z,2.90
2022-10-04T13:50:35.336Z,3.10
2022-10-04T13:53:38.074Z,2.87
2022-10-04T13:56:40.294Z,3.03
2022-10-04T13:59:23.218Z,3.38
2022-10-04T14:02:21.776Z,3.40
2022-10-04T14:05:18.956Z,3.50
2022-10-04T14:08:03.870Z,3.37
2022-10-04T14:10:53.350Z,3.53
2022-10-04T14:13:50.480Z,3.50
2022-10-04T14:16:52.774Z,3.70
2022-10-04T14:19:47.769Z,3.97
2022-10-04T14:22:46.498Z,4.87
2022-10-04T14:25:46.150Z,8.02
2022-10-04T14:28:51.300Z,4.88
2022-10-04T14:32:36.107Z,4.07
2022-10-04T14:35:14.078Z,4.33
2022-10-04T14:38:16.009Z,3.90
2022-10-04T14:41:12.558Z,4.23
2022-10-04T14:44:15.801Z,3.90
2022-10-04T14:46:57.781Z,3.40
2022-10-04T14:49:42.892Z,3.67
2022-10-04T14:52:34.193Z,4.20
2022-10-04T14:55:26.196Z,4.70
2022-10-04T14:58:13.971Z,4.67
2022-10-04T15:01:07.594Z,4.87
2022-10-04T15:03:42.709Z,4.93
2022-10-04T15:06:30.626Z,4.70
2022-10-04T15:09:22.665Z,4.40
2022-10-04T15:15:13.717Z,4.13
2022-10-04T15:17:59.886Z,3.87
2022-10-04T15:20:35.157Z,4.00
2022-10-04T15:26:55.707Z,4.30
2022-10-04T15:29:29.820Z,3.83
2022-10-04T15:32:08.282Z,3.60
2022-10-04T15:34:58.810Z,4.17
2022-10-04T15:37:41.144Z,4.30
2022-10-04T15:40:29.553Z,4.10
2022-10-04T15:43:16.381Z,3.83
2022-10-04T15:46:27.493Z,3.73
2022-10-04T15:49:22.181Z,3.80
2022-10-04T15:52:13.845Z,3.33
2022-10-04T15:55:08.095Z,3.70
2022-10-04T15:57:57.734Z,3.90
2022-10-04T16:00:28.972Z,3.93
2022-10-04T16:03:18.039Z,4.33
2022-10-04T16:06:00.352Z,3.80
2022-10-04T16:09:06.113Z,3.70
2022-10-04T16:11:52.128Z,4.50
2022-10-04T16:14:44.031Z,4.47
2022-10-04T16:17:30.905Z,4.30
2022-10-04T16:20:22.524Z,4.73
2022-10-04T16:23:27.291Z,3.90
2022-10-04T16:25:58.668Z,4.37
2022-10-04T16:29:01.231Z,4.47
2022-10-04T16:31:51.343Z,4.70
2022-10-04T16:34:53.126Z,3.67
2022-10-04T16:37:39.730Z,3.70
2022-10-04T16:40:34.030Z,4.30
2022-10-04T16:43:10.856Z,4.57
2022-10-04T16:46:14.967Z,4.67
2022-10-04T16:48:56.229Z,4.70
2022-10-04T16:51:54.251Z,5.80
2022-10-04T16:55:01.276Z,4.93
2022-10-04T16:57:31.393Z,5.10
2022-10-04T17:03:28.400Z,4.07
2022-10-04T17:06:15.287Z,4.27
2022-10-04T17:09:17.879Z,4.70
2022-10-04T17:11:58.185Z,4.80
2022-10-04T17:14:57.340Z,4.67
2022-10-04T17:17:43.929Z,7.50
2022-10-04T17:20:23.599Z,8.60
2022-10-04T17:23:06.910Z,8.77
2022-10-04T17:25:43.239Z,8.93
2022-10-04T17:28:21.956Z,8.10
2022-10-04T17:31:00.610Z,7.17
2022-10-04T17:33:43.702Z,6.23
2022-10-04T17:36:40.373Z,5.50
2022-10-04T17:39:34.805Z,5.90
2022-10-04T17:42:31.239Z,4.80
2022-10-04T17:45:28.977Z,5.60
2022-10-04T17:48:21.074Z,5.03
2022-10-04T17:51:16.898Z,6.33
2022-10-04T17:54:07.540Z,4.83
2022-10-04T17:56:41.123Z,6.30
2022-10-04T17:59:15.411Z,5.93
2022-10-04T18:01:47.883Z,6.57
2022-10-04T18:04:20.595Z,6.00
2022-10-04T18:06:56.762Z,6.10
2022-10-04T18:09:35.872Z,5.70
2022-10-04T18:12:12.477Z,6.37
2022-10-04T18:14:52.890Z,5.70
2022-10-04T18:17:39.312Z,5.30
2022-10-04T18:20:27.671Z,5.37
2022-10-04T18:23:04.057Z,5.17
2022-10-04T18:25:34.026Z,5.90
2022-10-04T18:28:07.463Z,5.33
2022-10-04T18:30:51.485Z,5.73
2022-10-04T18:33:26.042Z,5.40
2022-10-04T18:36:01.170Z,6.30
2022-10-04T18:38:31.498Z,6.23
2022-10-04T18:41:03.289Z,5.50
2022-10-04T18:43:36.906Z,4.70
2022-10-04T18:46:21.351Z,5.50
2022-10-04T18:48:55.602Z,5.53
2022-10-04T18:51:29.025Z,5.53
2022-10-04T18:57:55.518Z,6.00
2022-10-04T19:00:42.048Z,5.57
2022-10-04T19:03:24.246Z,6.53
2022-10-04T19:05:56.399Z,5.97
2022-10-04T19:08:36.871Z,5.50
2022-10-04T19:11:14.095Z,5.30
2022-10-04T19:13:50.956Z,6.37
2022-10-04T19:16:35.359Z,6.70
2022-10-04T19:19:20.606Z,6.00
2022-10-04T19:21:55.561Z,5.80
2022-10-04T19:24:45.403Z,5.43
2022-10-04T19:27:22.618Z,5.03
2022-10-04T19:30:03.642Z,5.57
2022-10-04T19:32:43.726Z,5.60
2022-10-04T19:35:25.295Z,5.70
2022-10-04T19:38:01.010Z,5.60
2022-10-04T19:40:39.511Z,5.60
2022-10-04T19:43:15.485Z,6.47
2022-10-04T19:45:51.295Z,6.67
2022-10-04T19:48:24.813Z,6.23
2022-10-04T19:50:59.191Z,6.00
2022-10-04T19:53:35.942Z,6.90
2022-10-04T19:56:07.600Z,6.50
2022-10-04T19:58:43.574Z,6.10
2022-10-04T20:01:12.761Z,6.43
2022-10-04T20:03:41.265Z,6.10
2022-10-04T20:06:10.140Z,6.33
2022-10-04T20:08:56.724Z,6.50
2022-10-04T20:11:29.538Z,6.97
2022-10-04T20:14:34.814Z,6.70
2022-10-04T20:17:07.578Z,6.27
2022-10-04T20:19:39.906Z,5.90
2022-10-04T20:22:51.442Z,5.73
2022-10-04T20:25:52.994Z,6.03
2022-10-04T20:28:42.723Z,6.20
2022-10-04T20:31:12.517Z,6.07
2022-10-04T20:33:50.158Z,5.83
2022-10-04T20:37:00.769Z,5.70
2022-10-04T20:40:01.947Z,6.30
2022-10-04T20:42:35.346Z,6.13
2022-10-04T20:45:22.490Z,5.87
2022-10-04T20:47:51.670Z,6.10
2022-10-04T20:50:38.794Z,6.00
2022-10-04T20:53:14.458Z,6.77
2022-10-04T20:55:44.272Z,6.10
2022-10-04T20:58:32.619Z,6.57
2022-10-04T21:01:13.571Z,6.00
2022-10-04T21:03:41.613Z,5.40
2022-10-04T21:06:13.325Z,6.00
2022-10-04T21:08:42.002Z,6.33
2022-10-04T21:11:21.173Z,6.83
2022-10-04T21:14:00.502Z,6.53
2022-10-04T21:16:57.469Z,6.23
2022-10-04T21:19:47.346Z,6.40
2022-10-04T21:22:42.121Z,6.03
2022-10-04T21:25:39.918Z,6.70
2022-10-04T21:28:34.194Z,6.40
2022-10-04T21:31:04.065Z,6.60
2022-10-04T21:33:36.339Z,6.60
2022-10-04T21:36:05.665Z,7.00
2022-10-04T21:38:35.117Z,6.53
2022-10-04T21:41:03.477Z,6.90
2022-10-04T21:43:31.980Z,6.47
2022-10-04T21:46:00.047Z,6.43
2022-10-04T21:48:28.382Z,6.17
2022-10-04T21:50:56.634Z,6.33
2022-10-04T21:53:24.625Z,6.67
2022-10-04T21:55:53.975Z,6.23
2022-10-04T21:58:22.536Z,6.77
2022-10-04T22:00:50.858Z,7.07
2022-10-04T22:03:18.916Z,7.33
2022-10-04T22:05:46.945Z,6.87
2022-10-04T22:08:14.938Z,7.17
2022-10-04T22:10:43.406Z,6.97
2022-10-04T22:13:12.749Z,7.10
2022-10-04T22:15:40.816Z,7.07
2022-10-04T22:18:09.044Z,7.53
2022-10-04T22:20:38.494Z,6.83
2022-10-04T22:23:14.964Z,6.77
2022-10-04T22:25:43.162Z,6.87
2022-10-04T22:28:21.696Z,7.13
2022-10-04T22:30:50.578Z,7.33
2022-10-04T22:33:29.049Z,6.80
2022-10-04T22:35:58.916Z,7.13
2022-10-04T22:38:26.908Z,6.53
2022-10-04T22:40:54.998Z,6.93
2022-10-04T22:43:24.418Z,7.23
2022-10-04T22:45:53.553Z,6.63
2022-10-04T22:48:21.593Z,7.23
2022-10-04T22:50:51.161Z,6.20
2022-10-04T22:53:21.657Z,6.63
2022-10-04T22:55:50.953Z,6.77
2022-10-04T22:58:20.942Z,6.43
2022-10-04T23:00:50.897Z,6.63
2022-10-04T23:03:28.003Z,6.67
2022-10-04T23:05:56.238Z,7.33
2022-10-04T23:08:24.469Z,6.57
2022-10-04T23:10:55.758Z,6.53
2022-10-04T23:13:24.960Z,6.80
2022-10-04T23:15:59.711Z,6.77
2022-10-04T23:18:29.354Z,6.87
2022-10-04T23:21:00.435Z,6.23
2022-10-04T23:23:29.374Z,6.97
2022-10-04T23:25:57.393Z,6.83
2022-10-04T23:28:25.851Z,7.03
2022-10-04T23:31:05.833Z,6.50
2022-10-04T23:33:33.874Z,6.33
2022-10-04T23:36:01.901Z,6.70
2022-10-04T23:38:31.359Z,7.77
2022-10-04T23:40:59.834Z,6.57
2022-10-04T23:43:30.878Z,6.57
2022-10-04T23:46:00.334Z,7.00
2022-10-04T23:48:31.964Z,6.83
2022-10-04T23:51:00.920Z,7.37
2022-10-04T23:53:31.405Z,6.67
2022-10-04T23:56:02.994Z,6.50
2022-10-04T23:58:35.486Z,6.73
